createdAt,value
2018-11-06T00:04:33.113Z,100235.00
2018-11-06T00:09:26.425Z,100226.00
2018-11-06T00:14:19.698Z,100227.00
2018-11-06T00:19:12.948Z,100222.00
2018-11-06T00:24:06.202Z,100231.00
2018-11-06T00:28:59.446Z,100232.00
2018-11-06T00:33:52.695Z,100221.00
2018-11-06T00:38:45.924Z,100221.00
2018-11-06T00:43:39.200Z,100227.00
2018-11-06T00:48:32.448Z,100244.00
2018-11-06T00:53:25.722Z,100250.00
2018-11-06T00:58:19.000Z,100239.00
2018-11-06T01:03:12.283Z,100238.00
2018-11-06T01:08:05.705Z,100232.00
2018-11-06T01:12:58.926Z,100235.00
2018-11-06T01:17:52.190Z,100240.00
2018-11-06T01:22:47.093Z,100257.00
2018-11-06T01:27:40.417Z,100251.00
2018-11-06T01:32:33.652Z,100245.00
2018-11-06T01:37:26.904Z,100237.00
2018-11-06T01:42:20.161Z,100243.00
2018-11-06T01:47:13.432Z,100239.00
2018-11-06T01:52:06.732Z,100230.00
2018-11-06T01:57:00.047Z,100232.00
2018-11-06T02:01:53.306Z,100218.00
2018-11-06T02:06:47.683Z,100219.00
2018-11-06T02:11:40.960Z,100225.00
2018-11-06T02:16:34.231Z,100223.00
2018-11-06T02:21:28.097Z,100226.00
2018-11-06T02:26:21.419Z,100226.00
2018-11-06T02:31:14.955Z,100206.00
2018-11-06T02:36:08.238Z,100205.00
2018-11-06T02:41:01.507Z,100204.00
2018-11-06T02:45:54.808Z,100195.00
2018-11-06T02:50:48.065Z,100192.00
2018-11-06T02:55:41.320Z,100192.00
2018-11-06T03:00:34.577Z,100192.00
2018-11-06T03:05:27.876Z,100187.00
2018-11-06T03:10:21.139Z,100195.00
2018-11-06T03:15:15.284Z,100189.00
2018-11-06T03:20:09.645Z,100191.00
2018-11-06T03:25:03.852Z,100204.00
2018-11-06T03:29:57.126Z,100192.00
2018-11-06T03:34:50.417Z,100222.00
2018-11-06T03:39:43.658Z,100231.00
2018-11-06T03:44:36.934Z,100229.00
2018-11-06T03:49:30.525Z,100220.00
2018-11-06T03:54:23.807Z,100217.00
2018-11-06T03:59:17.122Z,100194.00
2018-11-06T04:04:10.424Z,100182.00
2018-11-06T04:09:06.347Z,100194.00
2018-11-06T04:13:59.589Z,100199.00
2018-11-06T04:18:52.859Z,100215.00
2018-11-06T04:23:46.147Z,100223.00
2018-11-06T04:28:39.427Z,100237.00
2018-11-06T04:33:32.670Z,100237.00
2018-11-06T04:38:25.903Z,100234.00
2018-11-06T04:43:19.163Z,100227.00
2018-11-06T04:48:12.422Z,100216.00
2018-11-06T04:53:05.724Z,100202.00
2018-11-06T04:57:59.001Z,100193.00
2018-11-06T05:02:52.828Z,100184.00
2018-11-06T05:07:47.341Z,100177.00
2018-11-06T05:12:40.578Z,100168.00
2018-11-06T05:17:33.836Z,100185.00
2018-11-06T05:22:27.120Z,100185.00
2018-11-06T05:27:20.426Z,100166.00
2018-11-06T05:32:13.628Z,100168.00
2018-11-06T05:37:06.900Z,100171.00
2018-11-06T05:42:00.199Z,100166.00
2018-11-06T05:46:53.430Z,100165.00
2018-11-06T05:51:46.677Z,100168.00
2018-11-06T05:56:39.977Z,100164.00
2018-11-06T06:01:33.295Z,100160.00
2018-11-06T06:06:26.563Z,100165.00
2018-11-06T06:11:19.876Z,100172.00
2018-11-06T06:16:13.125Z,100171.00
2018-11-06T06:21:06.479Z,100177.00
2018-11-06T06:25:59.915Z,100206.00
2018-11-06T06:30:53.151Z,100224.00
2018-11-06T06:35:47.045Z,100232.00
2018-11-06T06:40:40.312Z,100226.00
2018-11-06T06:45:33.626Z,100221.00
2018-11-06T06:50:26.891Z,100218.00
2018-11-06T06:55:20.219Z,100209.00
2018-11-06T07:00:15.440Z,100220.00
2018-11-06T07:05:10.924Z,100241.00
2018-11-06T07:10:05.198Z,100246.00
2018-11-06T07:14:58.472Z,100262.00
2018-11-06T07:19:52.263Z,100270.00
2018-11-06T07:25:48.770Z,100264.00
2018-11-06T07:30:42.071Z,100259.00
2018-11-06T07:35:35.445Z,100259.00
2018-11-06T07:40:28.646Z,100253.00
2018-11-06T07:45:22.147Z,100241.00
2018-11-06T07:50:15.539Z,100262.00
2018-11-06T07:55:11.799Z,100277.00
2018-11-06T08:00:17.064Z,100286.00
2018-11-06T08:05:10.449Z,100284.00
2018-11-06T08:10:04.311Z,100286.00
2018-11-06T08:14:57.572Z,100292.00
2018-11-06T08:19:50.866Z,100286.00
2018-11-06T08:24:44.115Z,100276.00
2018-11-06T08:29:37.362Z,100288.00
2018-11-06T08:34:31.727Z,100286.00
2018-11-06T08:39:24.977Z,100285.00
2018-11-06T08:44:18.615Z,100292.00
2018-11-06T08:49:12.323Z,100292.00
2018-11-06T08:54:06.461Z,100278.00
2018-11-06T08:58:59.790Z,100282.00
2018-11-06T09:03:53.341Z,100278.00
2018-11-06T09:08:47.047Z,100270.00
2018-11-06T09:13:41.469Z,100280.00
2018-11-06T09:18:34.854Z,100268.00
2018-11-06T09:23:28.504Z,100264.00
2018-11-06T09:28:21.908Z,100271.00
2018-11-06T09:33:15.205Z,100263.00
2018-11-06T09:38:08.860Z,100259.00
2018-11-06T09:43:02.508Z,100250.00
2018-11-06T09:47:55.853Z,100255.00
2018-11-06T09:52:49.127Z,100249.00
2018-11-06T09:57:42.695Z,100243.00
2018-11-06T10:02:36.402Z,100246.00
2018-11-06T10:07:29.867Z,100248.00
2018-11-06T10:12:23.298Z,100254.00
2018-11-06T10:17:16.910Z,100257.00
2018-11-06T10:22:10.214Z,100254.00
2018-11-06T10:27:03.980Z,100252.00
2018-11-06T10:31:57.371Z,100235.00
2018-11-06T10:36:50.715Z,100238.00
2018-11-06T10:41:45.008Z,100239.00
2018-11-06T10:46:38.483Z,100219.00
2018-11-06T10:51:32.088Z,100208.00
2018-11-06T10:56:25.355Z,100184.00
2018-11-06T11:01:24.543Z,100179.00
2018-11-06T11:06:17.956Z,100178.00
2018-11-06T11:11:11.469Z,100168.00
2018-11-06T11:16:04.861Z,100162.00
2018-11-06T11:20:58.344Z,100157.00
2018-11-06T11:25:51.861Z,100155.00
2018-11-06T11:30:45.167Z,100147.00
2018-11-06T11:35:38.985Z,100142.00
2018-11-06T11:40:32.468Z,100136.00
2018-11-06T11:45:25.745Z,100111.00
2018-11-06T11:50:19.143Z,100107.00
2018-11-06T11:55:12.733Z,100103.00
2018-11-06T12:00:08.914Z,100100.00
2018-11-06T12:05:02.337Z,100099.00
2018-11-06T12:09:55.712Z,100097.00
2018-11-06T12:14:49.131Z,100100.00
2018-11-06T12:19:42.754Z,100092.00
2018-11-06T12:24:36.180Z,100087.00
2018-11-06T12:29:29.569Z,100081.00
2018-11-06T12:34:23.103Z,100079.00
2018-11-06T12:39:16.557Z,100075.00
2018-11-06T12:44:09.947Z,100068.00
2018-11-06T12:49:03.871Z,100069.00
2018-11-06T12:53:57.239Z,100056.00
2018-11-06T12:58:50.580Z,100053.00
2018-11-06T13:03:43.934Z,100050.00
2018-11-06T13:08:37.469Z,100046.00
2018-11-06T13:13:30.751Z,100045.00
2018-11-06T13:18:24.020Z,100026.00
2018-11-06T13:23:17.570Z,100014.00
2018-11-06T13:28:11.181Z,100011.00
2018-11-06T13:33:04.680Z,100005.00
2018-11-06T13:37:58.462Z,99996.00
2018-11-06T13:42:52.145Z,99993.00
2018-11-06T13:47:45.380Z,99980.00
2018-11-06T13:52:38.887Z,99980.00
2018-11-06T13:57:32.584Z,99988.00
2018-11-06T14:02:26.467Z,99996.00
2018-11-06T14:07:19.908Z,99995.00
2018-11-06T14:12:13.925Z,99990.00
2018-11-06T14:17:07.691Z,99997.00
2018-11-06T14:22:01.294Z,100004.00
2018-11-06T14:26:54.800Z,100008.00
2018-11-06T14:31:48.549Z,100021.00
2018-11-06T14:36:42.393Z,100023.00
2018-11-06T14:41:36.007Z,100021.00
2018-11-06T14:46:29.667Z,100023.00
2018-11-06T14:51:23.499Z,100029.00
2018-11-06T14:56:17.207Z,100026.00
2018-11-06T15:01:10.560Z,100020.00
2018-11-06T15:06:04.413Z,100018.00
2018-11-06T15:10:58.054Z,100020.00
2018-11-06T15:15:51.592Z,100020.00
2018-11-06T15:20:45.030Z,100026.00
2018-11-06T15:25:38.264Z,100016.00
2018-11-06T15:30:31.662Z,100017.00
2018-11-06T15:35:25.497Z,100016.00
2018-11-06T15:40:19.911Z,100025.00
2018-11-06T15:45:15.865Z,100035.00
2018-11-06T15:50:11.959Z,100036.00
2018-11-06T15:55:05.570Z,100035.00
2018-11-06T15:59:59.001Z,100045.00
2018-11-06T16:04:53.019Z,100051.00
2018-11-06T16:09:46.475Z,100051.00
2018-11-06T16:14:39.729Z,100062.00
2018-11-06T16:19:33.100Z,100078.00
2018-11-06T16:24:26.473Z,100075.00
2018-11-06T16:29:20.796Z,100077.00
2018-11-06T16:34:14.112Z,100075.00
2018-11-06T16:39:10.538Z,100080.00
2018-11-06T16:44:04.222Z,100085.00
2018-11-06T16:48:57.911Z,100092.00
2018-11-06T16:53:51.812Z,100088.00
2018-11-06T16:58:45.181Z,100082.00
2018-11-06T17:03:38.732Z,100102.00
2018-11-06T17:08:32.320Z,100110.00
2018-11-06T17:13:26.363Z,100121.00
2018-11-06T17:18:19.791Z,100123.00
2018-11-06T17:23:13.196Z,100120.00
2018-11-06T17:28:06.983Z,100127.00
2018-11-06T17:33:00.289Z,100118.00
2018-11-06T17:37:54.761Z,100125.00
2018-11-06T17:42:48.218Z,100139.00
2018-11-06T17:47:41.981Z,100155.00
2018-11-06T17:52:35.282Z,100157.00
2018-11-06T17:57:28.696Z,100151.00
2018-11-06T18:02:22.198Z,100159.00
2018-11-06T18:07:15.456Z,100162.00
2018-11-06T18:12:08.903Z,100165.00
2018-11-06T18:17:02.657Z,100164.00
2018-11-06T18:21:55.897Z,100170.00
2018-11-06T18:26:49.240Z,100171.00
2018-11-06T18:31:42.774Z,100182.00
2018-11-06T18:36:36.218Z,100183.00
2018-11-06T18:41:29.532Z,100181.00
2018-11-06T18:46:24.483Z,100190.00
2018-11-06T18:51:17.847Z,100191.00
2018-11-06T18:56:11.159Z,100198.00
2018-11-06T19:01:04.507Z,100204.00
2018-11-06T19:05:57.815Z,100207.00
2018-11-06T19:10:51.272Z,100215.00
2018-11-06T19:15:44.509Z,100223.00
2018-11-06T19:20:37.783Z,100225.00
2018-11-06T19:25:31.143Z,100231.00
2018-11-06T19:30:24.464Z,100233.00
2018-11-06T19:35:17.717Z,100230.00
2018-11-06T19:40:12.723Z,100228.00
2018-11-06T19:45:07.573Z,100226.00
2018-11-06T19:50:00.985Z,100224.00
2018-11-06T19:54:54.247Z,100223.00
2018-11-06T19:59:47.545Z,100220.00
2018-11-06T20:04:40.940Z,100227.00
2018-11-06T20:09:34.232Z,100227.00
2018-11-06T20:14:27.526Z,100228.00
2018-11-06T20:19:27.426Z,100232.00
2018-11-06T20:24:20.746Z,100229.00
2018-11-06T20:29:14.118Z,100230.00
2018-11-06T20:34:07.493Z,100233.00
2018-11-06T20:39:00.930Z,100240.00
2018-11-06T20:43:54.321Z,100240.00
2018-11-06T20:48:51.404Z,100241.00
2018-11-06T20:53:45.045Z,100247.00
2018-11-06T20:58:38.805Z,100248.00
2018-11-06T21:03:32.794Z,100248.00
2018-11-06T21:08:26.159Z,100267.00
2018-11-06T21:13:20.245Z,100271.00
2018-11-06T21:18:13.613Z,100267.00
2018-11-06T21:23:07.612Z,100265.00
2018-11-06T21:28:01.130Z,100276.00
2018-11-06T21:32:54.397Z,100269.00
2018-11-06T21:37:47.714Z,100268.00
2018-11-06T21:42:41.651Z,100279.00
2018-11-06T21:47:34.938Z,100272.00
2018-11-06T21:52:28.215Z,100277.00
2018-11-06T21:57:21.554Z,100282.00
2018-11-06T22:02:14.843Z,100290.00
2018-11-06T22:07:08.128Z,100290.00
2018-11-06T22:12:01.515Z,100293.00
2018-11-06T22:16:54.723Z,100293.00
2018-11-06T22:21:48.934Z,100278.00
2018-11-06T22:26:42.241Z,100272.00
2018-11-06T22:31:36.402Z,100274.00
2018-11-06T22:36:29.591Z,100279.00
2018-11-06T22:41:22.952Z,100282.00
2018-11-06T22:46:17.433Z,100284.00
2018-11-06T22:51:10.669Z,100280.00
2018-11-06T22:56:05.873Z,100282.00
2018-11-06T23:01:04.953Z,100285.00
2018-11-06T23:05:58.342Z,100290.00
2018-11-06T23:10:51.682Z,100294.00
2018-11-06T23:15:46.963Z,100297.00
2018-11-06T23:20:40.248Z,100284.00
2018-11-06T23:25:33.528Z,100286.00
2018-11-06T23:30:26.871Z,100293.00
2018-11-06T23:35:20.133Z,100282.00
2018-11-06T23:40:13.397Z,100294.00
2018-11-06T23:45:07.561Z,100297.00
2018-11-06T23:50:00.846Z,100298.00
2018-11-06T23:54:54.114Z,100303.00
2018-11-06T23:59:47.408Z,100306.00
